Oban — PDWJ — position and weather

sailwx.info

Track history (hours):
 
Tides and Currents Weather Stations Pressure Air Temp Water Temp Dewpoint Dewpoint Depression Visibility Wind Speed Wind Dir Waves Ship Positions

Oban

Last reported at 2017-Sep-22 02:00 UTC. Time now 2017-Sep-23 09:32 UTC.
Position N 54°25' E 010°25'.

Length 39 m; draft 2.8 m.

Type: Sailing vessel. MMSI: 246085000.

Date/timePositionNaut miles runAvg speedWind from/ knotsBaromVisibWave heightAir tempDewpointWater temp
2017-Sep-22 02:00N 54°25' E 010°25'0 0.0
2017-Sep-22 01:29N 54°25' E 010°25'0 0.0
2017-Sep-22 01:00N 54°25' E 010°25'0 0.0
2017-Sep-22 00:24N 54°25' E 010°25'0 0.0
2017-Sep-22 00:00N 54°25' E 010°25'0 0.0
2017-Sep-21 23:30N 54°25' E 010°25'0 0.0
2017-Sep-21 23:00N 54°25' E 010°25'0 0.0
2017-Sep-21 22:30N 54°25' E 010°25'0 0.0
2017-Sep-21 22:00N 54°25' E 010°25'0 0.0
2017-Sep-21 21:30N 54°25' E 010°25'0 0.0
2017-Sep-21 21:00N 54°25' E 010°25'0 0.0
2017-Sep-21 20:30N 54°25' E 010°25'0 0.0
2017-Sep-21 18:01N 54°25' E 010°25'0 0.0
2017-Sep-21 18:00N 54°25' E 010°25'0 0.0
2017-Sep-21 17:27N 54°25' E 010°25'0 0.0
2017-Sep-21 16:46N 54°25' E 010°25'0 0.0
2017-Sep-21 16:22N 54°25' E 010°25'2 4.6
2017-Sep-21 15:59N 54°27' E 010°26'3 6.1
2017-Sep-21 15:30N 54°30' E 010°26'3 6.2
2017-Sep-21 15:00N 54°33' E 010°27'3 6.5
2017-Sep-21 14:30N 54°36' E 010°29'3 6.6
2017-Sep-21 14:00N 54°39' E 010°30'3 6.3
2017-Sep-21 13:30N 54°42' E 010°32'3 6.3
2017-Sep-21 13:00N 54°45' E 010°33'3 5.8
2017-Sep-21 12:30N 54°48' E 010°35'2 3.5
2017-Sep-21 12:00N 54°50' E 010°35'0 0.9
2017-Sep-21 11:30N 54°50' E 010°34'0 0.9
2017-Sep-21 11:00N 54°50' E 010°33'1 2.3
2017-Sep-21 10:30N 54°51' E 010°32'1 1.0
2017-Sep-21 10:00N 54°51' E 010°31'0 0.0
2017-Sep-21 09:30N 54°51' E 010°31'0 0.0
2017-Sep-21 09:00N 54°51' E 010°31'0 0.0
2017-Sep-21 08:28N 54°51' E 010°31'0 0.0
2017-Sep-21 08:00N 54°51' E 010°31'0 0.0
2017-Sep-21 07:26N 54°51' E 010°31'0 0.0
2017-Sep-21 07:00N 54°51' E 010°31'0 0.0
2017-Sep-21 06:30N 54°51' E 010°31'0 0.0
2017-Sep-21 06:00N 54°51' E 010°31'0 0.0
2017-Sep-21 05:30N 54°51' E 010°31'0 0.0
2017-Sep-21 05:00N 54°51' E 010°31'0 0.0
2017-Sep-21 04:30N 54°51' E 010°31'0 0.0
2017-Sep-21 03:59N 54°51' E 010°31'0 0.0
2017-Sep-21 03:30N 54°51' E 010°31'0 0.0
2017-Sep-21 03:00N 54°51' E 010°31'0 0.0
2017-Sep-21 02:26N 54°51' E 010°31'0 0.0
2017-Sep-21 01:59N 54°51' E 010°31'0 0.0
2017-Sep-21 01:30N 54°51' E 010°31'0 0.0
2017-Sep-21 01:00N 54°51' E 010°31'0 0.0
2017-Sep-21 00:28N 54°51' E 010°31'0 0.0
2017-Sep-21 00:00N 54°51' E 010°31'0 0.0
2017-Sep-20 23:30N 54°51' E 010°31'0 0.0
2017-Sep-20 23:00N 54°51' E 010°31'0 0.0
2017-Sep-20 22:29N 54°51' E 010°31'0 0.0
2017-Sep-20 22:00N 54°51' E 010°31'0 0.0
2017-Sep-20 21:30N 54°51' E 010°31'0 0.0
2017-Sep-20 21:00N 54°51' E 010°31'0 0.0
2017-Sep-20 20:30N 54°51' E 010°31'0 0.0
2017-Sep-20 19:59N 54°51' E 010°31'0 0.0
2017-Sep-20 19:30N 54°51' E 010°31'0 0.0
2017-Sep-20 18:59N 54°51' E 010°31'0 0.0
2017-Sep-20 18:14N 54°51' E 010°31'0 0.0
2017-Sep-20 18:00N 54°51' E 010°31'0 0.0
2017-Sep-20 17:30N 54°51' E 010°31'0 0.0
2017-Sep-20 17:00N 54°51' E 010°31'0 0.0
2017-Sep-20 16:30N 54°51' E 010°31'0 0.0
2017-Sep-20 15:59N 54°51' E 010°31'0 0.0
2017-Sep-20 15:30N 54°51' E 010°31'0 0.0
2017-Sep-20 15:00N 54°51' E 010°31'0 0.0
2017-Sep-20 14:00N 54°51' E 010°31'0 0.9
2017-Sep-20 13:30N 54°52' E 010°31'2 3.5
2017-Sep-20 13:00N 54°53' E 010°33'3 5.2
2017-Sep-20 12:30N 54°55' E 010°30'3 5.2
2017-Sep-20 12:00N 54°57' E 010°27'2 3.9
2017-Sep-20 11:30N 54°56' E 010°23'1 1.8
2017-Sep-20 10:47N 54°57' E 010°21'21 0.8
2017-Sep-19 08:40N 54°38' E 010°04'1 4.9
2017-Sep-19 08:31N 54°38' E 010°03'18 0.5
2017-Sep-17 23:12N 54°20' E 010°09'0 0.0
2017-Sep-17 22:59N 54°20' E 010°09'0 0.0
2017-Sep-17 22:14N 54°20' E 010°09'17 1.3
2017-Sep-17 08:34N 54°37' E 010°04'11 0.6
2017-Sep-16 13:34N 54°47' E 010°12'0 3.4
2017-Sep-16 13:30N 54°47' E 010°12'2 3.9
2017-Sep-16 13:00N 54°47' E 010°15'2 4.7
2017-Sep-16 12:30N 54°47' E 010°19'3 5.2
2017-Sep-16 12:00N 54°47' E 010°24'2 4.3
2017-Sep-16 11:30N 54°47' E 010°28'2 4.1
2017-Sep-16 11:00N 54°47' E 010°31'3 6.1
2017-Sep-16 10:30N 54°50' E 010°32'1 2.9
2017-Sep-16 10:00N 54°51' E 010°31'0 0.0
2017-Sep-16 09:30N 54°51' E 010°31'0 0.0
2017-Sep-16 08:57N 54°51' E 010°31'0 0.0
2017-Sep-16 08:30N 54°51' E 010°31'0 0.0
2017-Sep-16 08:00N 54°51' E 010°31'0 0.0
2017-Sep-16 07:30N 54°51' E 010°31'0 0.0
2017-Sep-16 07:00N 54°51' E 010°31'0 0.0
2017-Sep-16 06:30N 54°51' E 010°31'0 0.0
2017-Sep-16 06:00N 54°51' E 010°31'0 0.0
2017-Sep-16 05:30N 54°51' E 010°31'0 0.0
2017-Sep-16 05:00N 54°51' E 010°31'0 0.0
2017-Sep-16 04:30N 54°51' E 010°31'0 0.0
2017-Sep-16 04:00N 54°51' E 010°31'0 0.0
2017-Sep-16 03:30N 54°51' E 010°31'0 0.0
2017-Sep-16 02:59N 54°51' E 010°31'0 0.0
2017-Sep-16 02:30N 54°51' E 010°31'0 0.0
2017-Sep-16 02:00N 54°51' E 010°31'0 0.0
2017-Sep-16 01:29N 54°51' E 010°31'0 0.0
2017-Sep-16 01:00N 54°51' E 010°31'0 0.0
2017-Sep-16 00:30N 54°51' E 010°31'0 0.0
2017-Sep-15 23:59N 54°51' E 010°31'0 0.0
2017-Sep-15 23:30N 54°51' E 010°31'0 0.0
2017-Sep-15 23:00N 54°51' E 010°31'0 0.0
2017-Sep-15 22:30N 54°51' E 010°31'0 0.0
2017-Sep-15 22:00N 54°51' E 010°31'0 0.0
2017-Sep-15 21:30N 54°51' E 010°31'0 0.0
2017-Sep-15 20:58N 54°51' E 010°31'0 0.0
2017-Sep-15 20:30N 54°51' E 010°31'0 0.0
2017-Sep-15 20:00N 54°51' E 010°31'0 0.0
2017-Sep-15 19:30N 54°51' E 010°31'0 0.0
2017-Sep-15 18:39N 54°51' E 010°31'0 0.0
2017-Sep-15 17:19N 54°51' E 010°31'0 0.0
2017-Sep-15 15:58N 54°51' E 010°31'0 0.0
2017-Sep-15 15:30N 54°51' E 010°31'0 0.0
2017-Sep-15 15:00N 54°51' E 010°31'0 0.0
2017-Sep-15 14:29N 54°51' E 010°31'1 1.8
2017-Sep-15 14:00N 54°52' E 010°32'1 2.7
2017-Sep-15 13:30N 54°53' E 010°33'3 6.0
2017-Sep-15 13:00N 54°56' E 010°30'3 5.9
2017-Sep-15 12:30N 54°57' E 010°25'20 0.8
2017-Sep-14 12:47N 54°42' E 010°03'2 8.2
2017-Sep-14 12:29N 54°39' E 010°04'3 0.1
2017-Sep-12 11:10N 54°36' E 010°04'1 5.5
2017-Sep-12 10:56N 54°37' E 010°04'  
Track history (hours):
 
Tides and Currents Weather Stations Pressure Air Temp Water Temp Dewpoint Dewpoint Depression Visibility Wind Speed Wind Dir Waves Ship Positions

Oban

Last reported at 2017-Sep-22 02:00 UTC. Time now 2017-Sep-23 09:32 UTC.
Position N 54°25' E 010°25'.

Length 39 m; draft 2.8 m.

Type: Sailing vessel. MMSI: 246085000.

Date/timePositionNaut miles runAvg speedWind from/ knotsBaromVisibWave heightAir tempDewpointWater temp
2017-Sep-22 02:00N 54°25' E 010°25'0 0.0
2017-Sep-22 01:29N 54°25' E 010°25'0 0.0
2017-Sep-22 01:00N 54°25' E 010°25'0 0.0
2017-Sep-22 00:24N 54°25' E 010°25'0 0.0
2017-Sep-22 00:00N 54°25' E 010°25'0 0.0
2017-Sep-21 23:30N 54°25' E 010°25'0 0.0
2017-Sep-21 23:00N 54°25' E 010°25'0 0.0
2017-Sep-21 22:30N 54°25' E 010°25'0 0.0
2017-Sep-21 22:00N 54°25' E 010°25'0 0.0
2017-Sep-21 21:30N 54°25' E 010°25'0 0.0
2017-Sep-21 21:00N 54°25' E 010°25'0 0.0
2017-Sep-21 20:30N 54°25' E 010°25'0 0.0
2017-Sep-21 18:01N 54°25' E 010°25'0 0.0
2017-Sep-21 18:00N 54°25' E 010°25'0 0.0
2017-Sep-21 17:27N 54°25' E 010°25'0 0.0
2017-Sep-21 16:46N 54°25' E 010°25'0 0.0
2017-Sep-21 16:22N 54°25' E 010°25'2 4.6
2017-Sep-21 15:59N 54°27' E 010°26'3 6.1
2017-Sep-21 15:30N 54°30' E 010°26'3 6.2
2017-Sep-21 15:00N 54°33' E 010°27'3 6.5
2017-Sep-21 14:30N 54°36' E 010°29'3 6.6
2017-Sep-21 14:00N 54°39' E 010°30'3 6.3
2017-Sep-21 13:30N 54°42' E 010°32'3 6.3
2017-Sep-21 13:00N 54°45' E 010°33'3 5.8
2017-Sep-21 12:30N 54°48' E 010°35'2 3.5
2017-Sep-21 12:00N 54°50' E 010°35'0 0.9
2017-Sep-21 11:30N 54°50' E 010°34'0 0.9
2017-Sep-21 11:00N 54°50' E 010°33'1 2.3
2017-Sep-21 10:30N 54°51' E 010°32'1 1.0
2017-Sep-21 10:00N 54°51' E 010°31'0 0.0
2017-Sep-21 09:30N 54°51' E 010°31'0 0.0
2017-Sep-21 09:00N 54°51' E 010°31'0 0.0
2017-Sep-21 08:28N 54°51' E 010°31'0 0.0
2017-Sep-21 08:00N 54°51' E 010°31'0 0.0
2017-Sep-21 07:26N 54°51' E 010°31'0 0.0
2017-Sep-21 07:00N 54°51' E 010°31'0 0.0
2017-Sep-21 06:30N 54°51' E 010°31'0 0.0
2017-Sep-21 06:00N 54°51' E 010°31'0 0.0
2017-Sep-21 05:30N 54°51' E 010°31'0 0.0
2017-Sep-21 05:00N 54°51' E 010°31'0 0.0
2017-Sep-21 04:30N 54°51' E 010°31'0 0.0
2017-Sep-21 03:59N 54°51' E 010°31'0 0.0
2017-Sep-21 03:30N 54°51' E 010°31'0 0.0
2017-Sep-21 03:00N 54°51' E 010°31'0 0.0
2017-Sep-21 02:26N 54°51' E 010°31'0 0.0
2017-Sep-21 01:59N 54°51' E 010°31'0 0.0
2017-Sep-21 01:30N 54°51' E 010°31'0 0.0
2017-Sep-21 01:00N 54°51' E 010°31'0 0.0
2017-Sep-21 00:28N 54°51' E 010°31'0 0.0
2017-Sep-21 00:00N 54°51' E 010°31'0 0.0
2017-Sep-20 23:30N 54°51' E 010°31'0 0.0
2017-Sep-20 23:00N 54°51' E 010°31'0 0.0
2017-Sep-20 22:29N 54°51' E 010°31'0 0.0
2017-Sep-20 22:00N 54°51' E 010°31'0 0.0
2017-Sep-20 21:30N 54°51' E 010°31'0 0.0
2017-Sep-20 21:00N 54°51' E 010°31'0 0.0
2017-Sep-20 20:30N 54°51' E 010°31'0 0.0
2017-Sep-20 19:59N 54°51' E 010°31'0 0.0
2017-Sep-20 19:30N 54°51' E 010°31'0 0.0
2017-Sep-20 18:59N 54°51' E 010°31'0 0.0
2017-Sep-20 18:14N 54°51' E 010°31'0 0.0
2017-Sep-20 18:00N 54°51' E 010°31'0 0.0
2017-Sep-20 17:30N 54°51' E 010°31'0 0.0
2017-Sep-20 17:00N 54°51' E 010°31'0 0.0
2017-Sep-20 16:30N 54°51' E 010°31'0 0.0
2017-Sep-20 15:59N 54°51' E 010°31'0 0.0
2017-Sep-20 15:30N 54°51' E 010°31'0 0.0
2017-Sep-20 15:00N 54°51' E 010°31'0 0.0
2017-Sep-20 14:00N 54°51' E 010°31'0 0.9
2017-Sep-20 13:30N 54°52' E 010°31'2 3.5
2017-Sep-20 13:00N 54°53' E 010°33'3 5.2
2017-Sep-20 12:30N 54°55' E 010°30'3 5.2
2017-Sep-20 12:00N 54°57' E 010°27'2 3.9
2017-Sep-20 11:30N 54°56' E 010°23'1 1.8
2017-Sep-20 10:47N 54°57' E 010°21'21 0.8
2017-Sep-19 08:40N 54°38' E 010°04'1 4.9
2017-Sep-19 08:31N 54°38' E 010°03'18 0.5
2017-Sep-17 23:12N 54°20' E 010°09'0 0.0
2017-Sep-17 22:59N 54°20' E 010°09'0 0.0
2017-Sep-17 22:14N 54°20' E 010°09'17 1.3
2017-Sep-17 08:34N 54°37' E 010°04'11 0.6
2017-Sep-16 13:34N 54°47' E 010°12'0 3.4
2017-Sep-16 13:30N 54°47' E 010°12'2 3.9
2017-Sep-16 13:00N 54°47' E 010°15'2 4.7
2017-Sep-16 12:30N 54°47' E 010°19'3 5.2
2017-Sep-16 12:00N 54°47' E 010°24'2 4.3
2017-Sep-16 11:30N 54°47' E 010°28'2 4.1
2017-Sep-16 11:00N 54°47' E 010°31'3 6.1
2017-Sep-16 10:30N 54°50' E 010°32'1 2.9
2017-Sep-16 10:00N 54°51' E 010°31'0 0.0
2017-Sep-16 09:30N 54°51' E 010°31'0 0.0
2017-Sep-16 08:57N 54°51' E 010°31'0 0.0
2017-Sep-16 08:30N 54°51' E 010°31'0 0.0
2017-Sep-16 08:00N 54°51' E 010°31'0 0.0
2017-Sep-16 07:30N 54°51' E 010°31'0 0.0
2017-Sep-16 07:00N 54°51' E 010°31'0 0.0
2017-Sep-16 06:30N 54°51' E 010°31'0 0.0
2017-Sep-16 06:00N 54°51' E 010°31'0 0.0
2017-Sep-16 05:30N 54°51' E 010°31'0 0.0
2017-Sep-16 05:00N 54°51' E 010°31'0 0.0
2017-Sep-16 04:30N 54°51' E 010°31'0 0.0
2017-Sep-16 04:00N 54°51' E 010°31'0 0.0
2017-Sep-16 03:30N 54°51' E 010°31'0 0.0
2017-Sep-16 02:59N 54°51' E 010°31'0 0.0
2017-Sep-16 02:30N 54°51' E 010°31'0 0.0
2017-Sep-16 02:00N 54°51' E 010°31'0 0.0
2017-Sep-16 01:29N 54°51' E 010°31'0 0.0
2017-Sep-16 01:00N 54°51' E 010°31'0 0.0
2017-Sep-16 00:30N 54°51' E 010°31'0 0.0
2017-Sep-15 23:59N 54°51' E 010°31'0 0.0
2017-Sep-15 23:30N 54°51' E 010°31'0 0.0
2017-Sep-15 23:00N 54°51' E 010°31'0 0.0
2017-Sep-15 22:30N 54°51' E 010°31'0 0.0
2017-Sep-15 22:00N 54°51' E 010°31'0 0.0
2017-Sep-15 21:30N 54°51' E 010°31'0 0.0
2017-Sep-15 20:58N 54°51' E 010°31'0 0.0
2017-Sep-15 20:30N 54°51' E 010°31'0 0.0
2017-Sep-15 20:00N 54°51' E 010°31'0 0.0
2017-Sep-15 19:30N 54°51' E 010°31'0 0.0
2017-Sep-15 18:39N 54°51' E 010°31'0 0.0
2017-Sep-15 17:19N 54°51' E 010°31'0 0.0
2017-Sep-15 15:58N 54°51' E 010°31'0 0.0
2017-Sep-15 15:30N 54°51' E 010°31'0 0.0
2017-Sep-15 15:00N 54°51' E 010°31'0 0.0
2017-Sep-15 14:29N 54°51' E 010°31'1 1.8
2017-Sep-15 14:00N 54°52' E 010°32'1 2.7
2017-Sep-15 13:30N 54°53' E 010°33'3 6.0
2017-Sep-15 13:00N 54°56' E 010°30'3 5.9
2017-Sep-15 12:30N 54°57' E 010°25'20 0.8
2017-Sep-14 12:47N 54°42' E 010°03'2 8.2
2017-Sep-14 12:29N 54°39' E 010°04'3 0.1
2017-Sep-12 11:10N 54°36' E 010°04'1 5.5
2017-Sep-12 10:56N 54°37' E 010°04'  

Dump ship's entire track history